Anloo, Netherlands
Current Conditions -  °F | °C
As of 11:25 PM on Monday 20 Oct 2014 (Local Time) from EHGG Reporting Station
Few Clouds Few Clouds  
Wind Chill: 54°   Ceiling: Unl
Heat Index: 54°   Visibility: 6mi
Dew Point: 52°   Wind: 7mph
Humidity: 94%   Direction: 210°SSW
Pressure: 29.83"   Gusts: NA
Location:  53.04°N, 6.7°E
Report Text: EHGG 202125Z AUTO 21006KT 9999 FEW015CB 12/11 Q1010
Loading
Personal Weather Stations






























Interactive Weather Map
Tropical Storm Tracking
New forecast layout! Learn more

10-Day Weather Forecast

Advertisements
Track Severe Weather on mobile